Bellmunt





Hora UTC 20:25
Temperatura 0.3 ºC
Humitat 56.0 %
Pressió 1001.2 hPa
Pluja 0.0 mm
Velocitat vent 0.0 km/h
Direcció vent WNW

Dades diàries 2021-11-27



Hora UTC (hivern +1h; estiu +2h)
Temperatura (ºC) Humitat (%) Pressió (hPa) Velocitat vent (km/h) Precipitació (mm)
Hora UTC Aire Humitat Pressió Vel. Dir. Vel. Max Dir. Intent. màx 5 min.
00:00 -1.0 89.0 1000.9 0.0 WNW 0.0 0.0
00:05 -1.1 90.0 1000.7 0.0 WNW 0.0 0.0
00:10 -1.1 90.0 1000.7 0.0 WNW 0.0 0.0
00:15 -1.1 90.0 1000.5 0.0 WNW 0.0 0.0
00:25 -1.2 91.0 1000.4 0.0 NW 0.0 0.0
00:30 -1.2 90.0 1000.4 0.0 NNW 0.0 0.0
00:35 -1.3 91.0 1000.4 0.0 WNW 0.0 0.0
00:40 -1.3 91.0 1000.4 0.0 NW 1.6 0.0
00:45 -1.4 91.0 1000.3 0.0 W 1.6 0.0
00:50 -1.5 91.0 1000.4 0.0 W 0.0 0.0
00:55 -1.5 91.0 1000.1 0.0 WNW 0.0 0.0
01:00 -1.6 91.0 1000.1 0.0 NW 0.0 0.0
01:05 -1.6 91.0 1000.0 0.0 WNW 0.0 0.0
01:10 -1.7 91.0 999.9 0.0 W 0.0 0.0
01:15 -1.7 91.0 1000.0 0.0 SW 0.0 0.0
01:20 -1.8 92.0 999.9 0.0 W 1.6 0.0
01:25 -1.8 92.0 999.8 0.0 S 3.2 0.0
01:30 -1.8 92.0 999.9 0.0 S 3.2 0.0
01:35 -1.8 92.0 999.8 0.0 S 0.0 0.0
01:40 -1.8 92.0 999.7 0.0 WNW 9.7 0.0
01:45 -1.9 92.0 999.5 0.0 NW 9.7 0.0
01:50 -1.9 92.0 999.5 1.6 WNW 9.7 0.0
01:55 -1.9 92.0 999.5 1.6 W 9.7 0.0
02:00 -1.9 92.0 999.4 0.0 W 3.2 0.0
02:05 -1.9 92.0 999.5 1.6 W 4.8 0.0
02:10 -2.0 92.0 999.5 0.0 W 4.8 0.0
02:15 -2.0 92.0 999.4 3.2 WSW 3.2 0.0
02:20 -1.9 92.0 999.3 0.0 W 4.8 0.0
02:25 -1.9 92.0 999.3 0.0 SSW 1.6 0.0
02:30 -1.8 93.0 999.2 0.0 SSW 0.0 0.0
02:35 -1.8 93.0 999.1 0.0 W 1.6 0.0
02:40 -1.8 92.0 999.1 0.0 WNW 1.6 0.0
02:45 -1.8 92.0 999.1 0.0 WNW 0.0 0.0
02:50 -1.9 92.0 998.9 0.0 W 0.0 0.0
02:55 -1.9 92.0 998.8 0.0 WSW 4.8 0.0
03:00 -2.0 92.0 998.6 0.0 W 4.8 0.0
03:05 -2.0 92.0 998.4 0.0 W 4.8 0.0
03:10 -2.0 92.0 998.4 0.0 WSW 14.5 0.0
03:15 -2.0 92.0 998.4 0.0 W 12.9 0.0
03:20 -1.8 91.0 998.3 4.8 W 19.3 0.0
03:25 -1.3 87.0 998.1 4.8 W 19.3 0.0
03:30 -0.9 85.0 998.1 0.0 W 11.3 0.0
03:35 -0.8 83.0 998.0 0.0 W 11.3 0.0
03:40 -0.6 80.0 998.0 0.0 WNW 14.5 0.0
03:45 -0.4 80.0 998.1 0.0 W 16.1 0.0
03:50 -0.7 85.0 998.0 0.0 WSW 16.1 0.0
03:55 -1.1 86.0 998.0 0.0 W 4.8 0.0
04:00 -1.4 87.0 997.9 0.0 WNW 4.8 0.0
04:05 -1.7 87.0 997.9 0.0 W 4.8 0.0
04:10 -1.8 86.0 997.9 1.6 WSW 4.8 0.0
04:15 -1.9 88.0 997.7 0.0 WSW 4.8 0.0
04:20 -2.1 89.0 997.6 0.0 W 3.2 0.0
04:25 -2.2 89.0 997.5 4.8 W 16.1 0.0
04:30 -2.0 87.0 997.6 0.0 W 16.1 0.0
04:35 -1.8 87.0 997.4 4.8 W 9.7 0.0
04:40 -1.4 80.0 997.3 4.8 W 9.7 0.0
04:45 -1.2 82.0 997.3 4.8 WSW 14.5 0.0
04:50 -1.2 82.0 997.2 0.0 WSW 14.5 0.0
04:55 -1.3 81.0 996.9 4.8 W 12.9 0.0
05:00 -1.1 77.0 996.9 6.4 W 12.9 0.0
05:05 -0.7 75.0 997.1 3.2 WSW 8.0 0.0
05:10 -1.3 85.0 997.0 6.4 WSW 8.0 0.0
05:15 -1.9 87.0 997.1 0.0 WSW 6.4 0.0
05:20 -2.2 88.0 997.0 0.0 W 12.9 0.0
05:25 -2.3 89.0 996.8 0.0 S 6.4 0.0
05:30 -2.5 90.0 996.6 11.3 W 11.3 0.0
05:35 -2.6 90.0 996.8 0.0 WSW 11.3 0.0
05:40 -2.7 90.0 996.6 1.6 W 17.7 0.0
05:45 -2.7 90.0 996.8 0.0 SW 16.1 0.0
05:50 -2.8 91.0 996.8 0.0 WNW 1.6 0.0
05:55 -2.9 90.0 996.8 0.0 WNW 0.0 0.0
05:55 -2.9 91.0 996.9 0.0 WNW 0.0 0.0
06:00 -2.9 91.0 996.9 0.0 WNW 0.0 0.0
06:05 -3.0 91.0 996.8 0.0 WNW 0.0 0.0
06:10 -3.0 91.0 996.8 0.0 NW 0.0 0.0
06:15 -3.0 91.0 996.8 0.0 WSW 1.6 0.0
06:20 -2.9 91.0 996.8 0.0 W 9.7 0.0
06:25 -3.0 91.0 996.7 0.0 S 6.4 0.0
06:30 -3.1 91.0 996.6 0.0 WNW 6.4 0.0
06:35 -2.8 92.0 996.4 1.6 WSW 9.7 0.0
06:40 -2.7 92.0 996.4 0.0 WSW 6.4 0.0
06:45 -2.8 91.0 996.4 0.0 W 6.4 0.0
06:50 -2.8 91.0 996.4 0.0 W 1.6 0.0
06:55 -3.0 91.0 996.4 0.0 W 1.6 0.0
07:00 -3.1 91.0 996.5 0.0 W 6.4 0.0
07:05 -3.0 91.0 996.4 0.0 W 8.0 0.0
07:10 -3.1 91.0 996.4 0.0 SSW 8.0 0.0
07:15 -3.2 91.0 996.3 0.0 WSW 1.6 0.0
07:20 -3.3 91.0 996.5 0.0 WSW 0.0 0.0
07:25 -3.3 91.0 996.5 0.0 NW 0.0 0.0
07:30 -3.3 91.0 996.5 0.0 NW 0.0 0.0
07:35 -3.2 92.0 996.6 0.0 NE 0.0 0.0
07:40 -3.1 92.0 996.6 0.0 E 0.0 0.0
07:45 -3.1 92.0 996.7 0.0 NNW 0.0 0.0
07:50 -3.1 92.0 996.7 0.0 NW 0.0 0.0
07:55 -3.1 92.0 996.8 0.0 W 0.0 0.0
08:00 -3.1 92.0 996.8 0.0 W 0.0 0.0
08:05 -3.1 92.0 996.8 0.0 NW 0.0 0.0
08:10 -3.1 92.0 996.8 0.0 E 0.0 0.0
08:15 -3.1 92.0 996.8 0.0 WNW 0.0 0.0
08:20 -2.8 92.0 997.0 0.0 W 0.0 0.0
08:25 -2.8 92.0 997.0 0.0 SW 0.0 0.0
08:30 -2.6 92.0 997.1 0.0 W 0.0 0.0
08:35 -2.4 92.0 997.1 0.0 W 0.0 0.0
08:40 -2.2 92.0 997.1 0.0 SE 1.6 0.0
08:45 -1.9 92.0 996.9 0.0 N 1.6 0.0
08:55 -1.6 89.0 997.0 0.0 SSE 1.6 0.0
09:00 -1.3 87.0 997.0 0.0 NE 1.6 0.0
09:05 -1.2 88.0 997.0 0.0 SSE 1.6 0.0
09:10 -1.2 89.0 997.0 0.0 S 1.6 0.0
09:15 -1.0 88.0 997.2 0.0 WNW 8.0 0.0
09:20 -1.1 87.0 997.1 0.0 WNW 8.0 0.0
09:25 -0.9 88.0 997.3 0.0 SSW 0.0 0.0
09:30 -1.2 88.0 997.3 0.0 SSW 0.0 0.0
09:35 -1.2 88.0 997.4 0.0 W 1.6 0.0
09:40 -1.7 88.0 997.4 0.0 S 1.6 0.0
09:45 -1.9 90.0 997.5 0.0 SE 4.8 0.0
09:50 -1.8 91.0 997.3 0.0 SE 4.8 0.0
09:55 -1.5 91.0 997.4 0.0 SE 4.8 0.0
10:00 -1.4 90.0 997.5 0.0 SSW 8.0 0.0
10:05 -1.8 90.0 997.7 0.0 SSW 8.0 0.0
10:10 -2.1 91.0 997.9 0.0 WSW 3.2 0.0
10:15 -1.9 91.0 998.0 0.0 WNW 0.0 0.0
10:20 -1.8 92.0 997.9 0.0 E 0.0 0.0
10:25 -1.5 92.0 997.9 0.0 SSE 0.0 0.0
10:30 -1.1 93.0 997.9 0.0 ESE 1.6 0.0
10:35 -0.8 93.0 997.9 0.0 W 1.6 0.0
10:40 -0.6 93.0 997.9 0.0 WNW 1.6 0.0
10:45 -0.6 92.0 997.7 3.2 SW 3.2 0.0
10:50 -0.7 91.0 997.8 0.0 SSW 4.8 0.0
10:55 -0.8 91.0 997.9 0.0 W 6.4 0.0
11:00 -0.5 92.0 997.9 3.2 S 6.4 0.0
11:05 -0.1 92.0 997.8 0.0 SW 4.8 0.0
11:10 0.3 92.0 997.8 0.0 SW 1.6 0.0
11:15 0.6 91.0 997.9 0.0 SSW 3.2 0.0
11:20 0.7 90.0 997.9 0.0 SSE 3.2 0.0
11:25 0.5 88.0 998.1 0.0 W 6.4 0.0
11:30 0.2 88.0 998.1 0.0 W 6.4 0.0
11:35 0.0 89.0 998.1 0.0 W 1.6 0.0
11:40 -0.2 89.0 998.1 0.0 WNW 1.6 0.0
11:45 -0.3 90.0 998.0 0.0 W 1.6 0.0
11:50 -0.2 90.0 998.0 0.0 W 1.6 0.0
11:55 0.0 90.0 998.1 0.0 W 1.6 0.0
12:00 0.1 90.0 998.1 0.0 W 0.0 0.0
12:05 0.1 89.0 998.2 0.0 W 0.0 0.0
12:10 0.1 83.0 998.2 0.0 NNW 0.0 0.0
12:15 0.2 84.0 998.1 0.0 N 0.0 0.0
12:20 0.3 85.0 998.2 0.0 NNW 6.4 0.0
12:25 0.3 86.0 998.3 8.0 NW 9.7 0.0
12:30 0.1 87.0 998.0 4.8 NNW 20.9 0.0
12:35 -0.1 88.0 998.0 1.6 N 20.9 0.0
12:40 -0.2 87.0 997.8 4.8 NW 17.7 0.0
12:45 -0.2 86.0 997.7 4.8 NNW 9.7 0.0
12:50 -0.2 86.0 997.5 4.8 NNW 6.4 0.0
12:55 -0.2 86.0 997.5 3.2 NNW 9.7 0.0
13:00 -0.2 86.0 997.5 3.2 NNE 16.1 0.0
13:05 0.0 82.0 997.6 3.2 N 16.1 0.0
13:10 0.4 76.0 997.6 3.2 N 14.5 0.0
13:15 0.9 71.0 997.4 4.8 N 12.9 0.0
13:20 1.2 70.0 997.4 3.2 NNW 6.4 0.0
13:25 1.3 66.0 997.5 4.8 NW 17.7 0.0
13:30 1.6 66.0 997.3 1.6 NNW 17.7 0.0
13:30 1.7 65.0 997.3 4.8 NNW 9.7 0.0
13:40 1.8 64.0 997.4 0.0 NW 14.5 0.0
13:45 1.8 65.0 997.5 0.0 W 4.8 0.0
13:50 1.8 64.0 997.5 3.2 W 4.8 0.0
13:55 1.8 61.0 997.6 0.0 NW 6.4 0.0
14:00 1.8 65.0 997.5 3.2 NW 14.5 0.0
14:05 1.7 67.0 997.4 0.0 WNW 12.9 0.0
14:10 1.7 67.0 997.3 0.0 NW 16.1 0.0
14:15 1.7 68.0 997.5 0.0 NNW 16.1 0.0
14:20 1.7 67.0 997.5 0.0 WNW 6.4 0.0
14:25 1.8 66.0 997.7 0.0 WNW 9.7 0.0
14:30 1.9 62.0 998.0 6.4 W 14.5 0.0
14:35 2.2 58.0 998.1 6.4 WNW 11.3 0.0
14:40 2.3 57.0 998.4 4.8 WNW 11.3 0.0
14:45 2.3 59.0 998.5 4.8 W 11.3 0.0
14:50 2.4 58.0 998.6 0.0 WNW 11.3 0.0
14:55 2.4 63.0 998.5 11.3 WNW 11.3 0.0
15:00 2.4 50.0 998.7 0.0 NW 17.7 0.0
15:05 2.6 54.0 998.7 3.2 W 17.7 0.0
15:10 2.6 55.0 998.8 0.0 W 11.3 0.0
15:15 2.6 49.0 999.1 1.6 W 6.4 0.0
15:20 2.5 74.0 999.2 0.0 WSW 6.4 0.0
15:25 2.1 82.0 999.3 0.0 WSW 12.9 0.0
15:30 1.7 83.0 999.0 0.0 WSW 12.9 0.0
15:35 1.3 82.0 999.3 0.0 WNW 11.3 0.0
15:35 1.3 82.0 999.2 0.0 S 11.3 0.0
15:45 1.3 84.0 999.2 0.0 W 3.2 0.0
15:50 1.2 84.0 999.2 0.0 W 3.2 0.0
15:50 1.2 85.0 999.1 1.6 WSW 3.2 0.0
16:00 1.2 86.0 999.1 0.0 WSW 4.8 0.0
16:05 1.2 86.0 999.2 19.3 W 20.9 0.0
16:10 1.2 86.0 999.0 0.0 W 20.9 0.0
16:10 1.2 87.0 999.2 1.6 WSW 19.3 0.0
16:15 1.2 87.0 999.2 0.0 WSW 11.3 0.0
16:20 1.2 87.0 999.3 0.0 W 12.9 0.0
16:25 1.1 87.0 999.3 6.4 WSW 12.9 0.0
16:30 1.0 87.0 999.4 9.7 W 11.3 0.0
16:35 0.9 88.0 999.6 0.0 W 11.3 0.0
16:40 0.9 88.0 999.6 1.6 W 6.4 0.0
16:45 0.9 88.0 999.7 0.0 W 6.4 0.0
16:50 0.8 88.0 999.6 0.0 W 6.4 0.0
16:55 0.8 88.0 999.8 0.0 WSW 4.8 0.0
17:00 0.8 88.0 999.7 0.0 W 6.4 0.0
17:05 0.8 88.0 999.7 3.2 W 6.4 0.0
17:10 0.8 88.0 999.7 0.0 W 4.8 0.0
17:15 0.7 88.0 999.8 0.0 W 6.4 0.0
17:20 0.7 88.0 999.8 1.6 W 11.3 0.0
17:25 0.6 88.0 999.9 0.0 W 11.3 0.0
17:30 0.6 89.0 1000.0 1.6 W 6.4 0.0
17:35 0.6 89.0 1000.0 3.2 WSW 6.4 0.0
17:40 0.5 89.0 1000.0 3.2 WSW 6.4 0.0
17:45 0.4 89.0 1000.0 0.0 W 17.7 0.0
17:50 0.4 89.0 999.9 4.8 W 17.7 0.0
17:55 0.3 90.0 1000.1 0.0 W 6.4 0.0
18:00 0.3 90.0 1000.0 0.0 W 6.4 0.0
18:05 0.2 90.0 1000.1 3.2 WNW 11.3 0.0
18:10 0.1 90.0 1000.1 4.8 W 19.3 0.0
18:15 0.1 90.0 1000.0 1.6 W 19.3 0.0
18:20 0.0 91.0 1000.1 0.0 WNW 19.3 0.0
18:25 -0.1 91.0 1000.3 0.0 NW 19.3 0.0
18:30 -0.1 91.0 1000.4 0.0 WNW 3.2 0.0
18:35 -0.1 91.0 1000.2 3.2 WNW 4.8 0.0
18:40 -0.1 91.0 1000.1 4.8 WNW 6.4 0.0
18:45 -0.4 86.0 1000.1 4.8 WNW 12.9 0.0
18:50 -0.3 80.0 1000.1 1.6 WNW 12.9 0.0
18:55 0.1 83.0 1000.1 4.8 WNW 6.4 0.0
19:00 0.1 73.0 1000.4 0.0 NW 12.9 0.0
19:05 0.2 81.0 1000.4 0.0 NW 12.9 0.0
19:10 0.1 78.0 1000.5 0.0 NW 6.4 0.0
19:15 -0.1 73.0 1000.5 0.0 WNW 6.4 0.0
19:20 0.1 62.0 1000.6 0.0 WNW 8.0 0.0
19:25 0.3 60.0 1000.7 3.2 NNW 19.3 0.0
19:30 0.6 53.0 1000.7 4.8 WNW 19.3 0.0
19:35 0.7 57.0 1000.6 4.8 WNW 16.1 0.0
19:40 0.5 57.0 1000.6 4.8 NNW 11.3 0.0
19:45 0.5 56.0 1000.5 4.8 NW 6.4 0.0
19:50 0.5 57.0 1000.7 4.8 WNW 9.7 0.0
19:55 0.5 57.0 1000.8 3.2 NW 9.7 0.0
20:00 0.4 56.0 1000.8 4.8 WNW 6.4 0.0
20:05 0.5 55.0 1000.9 3.2 WNW 9.7 0.0
20:10 0.6 55.0 1000.9 0.0 NE 9.7 0.0
20:15 0.5 56.0 1001.0 0.0 WNW 14.5 0.0
20:20 0.4 58.0 1001.1 0.0 NW 14.5 0.0
20:25 0.3 56.0 1001.2 0.0 WNW 1.6 0.0
Màxima 2.6 93.0 1001.2 19.3 W 20.9 0.0
Mínima -3.3 49.0 996.3
Total 0.0